createdAt,value
2023-03-22T00:03:34.335Z,54.47
2023-03-22T00:05:34.258Z,54.11
2023-03-22T00:08:36.935Z,54.13
2023-03-22T00:10:35.349Z,54.18
2023-03-22T00:13:35.551Z,54.75
2023-03-22T00:15:34.436Z,54.72
2023-03-22T00:18:38.362Z,54.73
2023-03-22T00:20:34.900Z,54.6
2023-03-22T00:22:34.474Z,54.64
2023-03-22T00:24:35.044Z,54.58
2023-03-22T00:27:34.847Z,54.33
2023-03-22T00:30:34.372Z,54.32
2023-03-22T00:33:34.222Z,54.56
2023-03-22T00:35:34.236Z,54.81
2023-03-22T00:37:34.731Z,54.61
2023-03-22T00:40:38.240Z,54.49
2023-03-22T00:43:34.160Z,55.14
2023-03-22T00:46:34.265Z,55.32
2023-03-22T00:48:35.064Z,55.3
2023-03-22T00:54:34.748Z,54.96
2023-03-22T01:05:34.147Z,55.11
2023-03-22T01:07:34.595Z,55.04
2023-03-22T01:10:34.207Z,55.42
2023-03-22T01:13:34.163Z,55.52
2023-03-22T01:15:34.726Z,55.41
2023-03-22T01:18:34.332Z,55.35
2023-03-22T01:21:35.010Z,55.54
2023-03-22T01:24:34.156Z,55.28
2023-03-22T01:26:34.400Z,55.27
2023-03-22T01:29:34.637Z,54.99
2023-03-22T01:34:34.550Z,54.8
2023-03-22T01:37:34.214Z,54.81
2023-03-22T01:39:34.239Z,55.3
2023-03-22T01:41:35.861Z,55.3
2023-03-22T01:44:34.361Z,55.12
2023-03-22T01:47:34.727Z,55.33
2023-03-22T01:49:34.830Z,55.42
2023-03-22T01:52:34.656Z,55.43
2023-03-22T01:55:34.221Z,55.3
2023-03-22T01:58:34.198Z,55.66
2023-03-22T02:00:34.197Z,55.74
2023-03-22T02:02:34.217Z,56.17
2023-03-22T02:04:34.255Z,55.88
2023-03-22T02:07:34.143Z,56.49
2023-03-22T02:09:34.890Z,56.13
2023-03-22T02:11:34.953Z,56.12
2023-03-22T02:13:34.991Z,56.63
2023-03-22T02:16:34.170Z,56.76
2023-03-22T02:18:34.792Z,56.51
2023-03-22T02:21:34.145Z,56.96
2023-03-22T02:24:34.368Z,56.95
2023-03-22T02:26:34.593Z,57.51
2023-03-22T02:29:34.589Z,57.14
2023-03-22T02:32:34.891Z,57.61
2023-03-22T02:35:34.222Z,57.18
2023-03-22T02:37:34.197Z,56.47
2023-03-22T02:40:34.375Z,56.39
2023-03-22T02:43:34.680Z,56.11
2023-03-22T02:46:34.433Z,55.92
2023-03-22T02:49:34.156Z,56.2
2023-03-22T02:51:34.411Z,56.09
2023-03-22T02:53:34.607Z,56.39
2023-03-22T02:55:34.836Z,56
2023-03-22T02:57:35.097Z,55.83
2023-03-22T03:00:34.410Z,55.72
2023-03-22T03:03:34.158Z,55.65
2023-03-22T03:05:34.281Z,55.49
2023-03-22T03:08:34.140Z,55.45
2023-03-22T03:10:34.981Z,55.31
2023-03-22T03:13:34.142Z,55.59
2023-03-22T03:15:35.053Z,55.56
2023-03-22T03:18:34.154Z,55.54
2023-03-22T03:20:34.846Z,55.59
2023-03-22T03:23:34.173Z,55.53
2023-03-22T03:25:35.104Z,55.52
2023-03-22T03:28:34.157Z,55.44
2023-03-22T03:30:34.185Z,55.81
2023-03-22T03:33:34.512Z,56.33
2023-03-22T03:36:34.188Z,55.7
2023-03-22T03:38:35.083Z,55.6
2023-03-22T03:41:34.184Z,55.62
2023-03-22T03:43:34.184Z,55.58
2023-03-22T03:46:34.550Z,55.37
2023-03-22T03:48:34.753Z,55.47
2023-03-22T03:51:34.374Z,54.9
2023-03-22T03:54:34.156Z,55.44
2023-03-22T03:56:34.405Z,55.25
2023-03-22T03:59:34.181Z,54.93
2023-03-22T04:01:34.638Z,55.06
2023-03-22T04:04:34.269Z,54.98
2023-03-22T04:07:34.188Z,54.94
2023-03-22T04:09:34.185Z,55.05
2023-03-22T04:11:34.871Z,55.12
2023-03-22T04:14:34.560Z,55.32
2023-03-22T04:16:34.793Z,55.25
2023-03-22T04:18:34.932Z,55.02
2023-03-22T04:21:34.160Z,55.09
2023-03-22T04:23:34.153Z,55.31
2023-03-22T04:25:35.125Z,55.01
2023-03-22T04:28:34.187Z,54.96
2023-03-22T04:31:34.214Z,55.01
2023-03-22T04:34:35.147Z,54.78
2023-03-22T04:37:34.807Z,54.78
2023-03-22T04:40:34.146Z,55
2023-03-22T04:42:34.193Z,54.96
2023-03-22T04:45:34.181Z,55.18
2023-03-22T04:47:34.341Z,55.13
2023-03-22T04:51:34.500Z,54.83
2023-03-22T04:54:34.190Z,55.02
2023-03-22T04:56:34.189Z,55.09
2023-03-22T04:59:34.190Z,54.81
2023-03-22T05:01:34.304Z,55.17
2023-03-22T05:04:34.211Z,55.08
2023-03-22T05:07:34.187Z,55.25
2023-03-22T05:10:34.187Z,55.33
2023-03-22T05:12:34.956Z,55.62
2023-03-22T05:15:34.879Z,55.67
2023-03-22T05:18:34.194Z,55.37
2023-03-22T05:21:34.184Z,55.38
2023-03-22T05:23:34.236Z,55.18
2023-03-22T05:25:34.537Z,55.59
2023-03-22T05:28:34.496Z,55.32
2023-03-22T05:31:34.229Z,55.37
2023-03-22T05:33:34.696Z,55.3
2023-03-22T05:36:34.856Z,55.31
2023-03-22T05:39:34.279Z,55.32
2023-03-22T05:42:34.151Z,55.49
2023-03-22T05:44:34.825Z,56.2
2023-03-22T05:47:34.206Z,55.7
2023-03-22T05:50:34.173Z,55.55
2023-03-22T05:52:35.018Z,55.71
2023-03-22T05:55:34.445Z,55.77
2023-03-22T05:58:34.222Z,55.61
2023-03-22T06:00:34.177Z,55.66
2023-03-22T06:02:34.218Z,55.56
2023-03-22T06:05:34.959Z,55.47
2023-03-22T06:08:34.257Z,55.46
2023-03-22T06:11:34.191Z,55.64
2023-03-22T06:13:34.188Z,55.65
2023-03-22T06:15:34.245Z,55.73
2023-03-22T06:17:34.933Z,56.34
2023-03-22T06:20:34.556Z,56.92
2023-03-22T06:23:34.191Z,55.67
2023-03-22T06:25:34.249Z,55.83
2023-03-22T06:27:34.909Z,55.58
2023-03-22T06:30:34.207Z,55.87
2023-03-22T06:33:34.396Z,57.28
2023-03-22T06:35:34.818Z,56.26
2023-03-22T06:38:34.200Z,56.72
2023-03-22T06:40:34.382Z,56.23
2023-03-22T06:43:34.669Z,55.94
2023-03-22T06:46:34.188Z,55.89
2023-03-22T06:49:34.484Z,56.18
2023-03-22T06:52:33.285Z,56.16
2023-03-22T06:54:34.480Z,56.27
2023-03-22T06:56:34.527Z,58.33
2023-03-22T06:59:34.244Z,59.92
2023-03-22T07:02:34.174Z,59.34
2023-03-22T07:04:34.803Z,61.14
2023-03-22T07:07:34.192Z,60.84
2023-03-22T07:09:34.867Z,59.42
2023-03-22T07:11:35.015Z,59.71
2023-03-22T07:14:34.168Z,58.16
2023-03-22T07:16:34.474Z,60.57
2023-03-22T07:19:34.221Z,59.47
2023-03-22T07:21:35.026Z,60.01
2023-03-22T07:24:34.217Z,60.01
2023-03-22T07:26:34.217Z,59.69
2023-03-22T07:28:34.400Z,58.58
2023-03-22T07:31:34.642Z,60.57
2023-03-22T07:34:34.128Z,58.99
2023-03-22T07:36:34.461Z,60.15
2023-03-22T07:39:34.895Z,58.5
2023-03-22T07:42:34.876Z,58.9
2023-03-22T07:45:34.234Z,59.88
2023-03-22T07:47:41.029Z,59.92
2023-03-22T07:50:34.259Z,59.79
2023-03-22T07:52:34.193Z,59.92
2023-03-22T07:55:34.234Z,58.44
2023-03-22T07:57:34.550Z,58.93
2023-03-22T07:59:34.623Z,60.48
2023-03-22T08:02:35.141Z,60.63
2023-03-22T08:05:34.292Z,57.78
2023-03-22T08:07:34.498Z,56.12
2023-03-22T08:10:34.186Z,56.4
2023-03-22T08:13:35.029Z,56.15
2023-03-22T08:16:34.867Z,58.95
2023-03-22T08:19:34.293Z,57.94
2023-03-22T08:21:35.048Z,58.57
2023-03-22T08:24:34.134Z,58.55
2023-03-22T08:26:34.320Z,56.49
2023-03-22T08:29:34.168Z,56.19
2023-03-22T08:31:34.249Z,57.63
2023-03-22T08:33:34.637Z,57.88
2023-03-22T08:36:34.195Z,56.05
2023-03-22T08:39:34.162Z,56.58
2023-03-22T08:41:34.243Z,56.4
2023-03-22T08:43:34.595Z,57.21
2023-03-22T08:46:34.472Z,57.42
2023-03-22T08:48:34.783Z,57.45
2023-03-22T08:51:34.537Z,57.41
2023-03-22T08:54:35.234Z,57.11
2023-03-22T08:56:34.209Z,57.51
2023-03-22T08:58:34.691Z,55.44
2023-03-22T09:01:34.274Z,55.68
2023-03-22T09:04:34.258Z,54.15
2023-03-22T09:06:34.642Z,54.12
2023-03-22T09:09:34.925Z,53.87
2023-03-22T09:12:34.675Z,53.72
2023-03-22T09:14:34.647Z,53.16
2023-03-22T09:17:34.205Z,53.81
2023-03-22T09:19:35.291Z,53.81
2023-03-22T09:22:34.238Z,53.66
2023-03-22T09:24:34.912Z,53.68
2023-03-22T09:27:34.394Z,53.77
2023-03-22T09:29:34.608Z,52.62
2023-03-22T09:32:34.177Z,52.61
2023-03-22T09:35:34.243Z,52.39
2023-03-22T09:38:34.223Z,51.79
2023-03-22T09:40:34.262Z,51.62
2023-03-22T09:42:34.870Z,51.58
2023-03-22T09:45:34.401Z,51.88
2023-03-22T09:48:34.932Z,51.89
2023-03-22T09:51:34.231Z,52.11
2023-03-22T09:53:34.256Z,51.2
2023-03-22T09:55:35.004Z,51.11
2023-03-22T09:57:35.034Z,51.77
2023-03-22T10:03:34.974Z,51.75
2023-03-22T10:06:34.155Z,52.18
2023-03-22T10:08:34.795Z,51.58
2023-03-22T10:11:34.393Z,50.92
2023-03-22T10:14:34.156Z,50.86
2023-03-22T10:17:34.764Z,50.54
2023-03-22T10:20:34.149Z,50.53
2023-03-22T10:23:34.218Z,49.22
2023-03-22T10:25:34.433Z,49.18
2023-03-22T10:28:34.166Z,48.95
2023-03-22T10:30:34.866Z,48.9
2023-03-22T10:33:34.175Z,49.15
2023-03-22T10:36:34.185Z,49.27
2023-03-22T10:39:35.102Z,48.4
2023-03-22T10:42:34.704Z,48.56
2023-03-22T10:45:35.018Z,49.22
2023-03-22T10:48:35.147Z,49.05
2023-03-22T10:51:34.226Z,48.47
2023-03-22T10:53:34.889Z,48.39
2023-03-22T10:56:34.840Z,47.59
2023-03-22T10:59:34.735Z,47.83
2023-03-22T11:02:35.053Z,47.7
2023-03-22T11:05:34.609Z,47.34
2023-03-22T11:08:34.184Z,47.64
2023-03-22T11:11:34.749Z,47.01
2023-03-22T11:14:34.311Z,46.49
2023-03-22T11:17:34.217Z,45.98
2023-03-22T11:19:34.279Z,45.54
2023-03-22T11:22:34.199Z,45.42
2023-03-22T11:24:34.330Z,44.63
2023-03-22T11:27:34.198Z,44.58
2023-03-22T11:30:34.234Z,43.69
2023-03-22T11:33:34.296Z,42.91
2023-03-22T11:36:34.165Z,42.96
2023-03-22T11:38:34.716Z,42.49
2023-03-22T11:41:35.229Z,42.09
2023-03-22T11:43:34.326Z,42.85
2023-03-22T11:45:34.492Z,42.38
2023-03-22T11:48:34.791Z,42.38
2023-03-22T11:51:34.692Z,40.79
2023-03-22T11:54:34.240Z,40.64
2023-03-22T11:58:34.230Z,40.49
2023-03-22T12:00:34.847Z,40.68
2023-03-22T12:03:36.170Z,40.4
2023-03-22T12:05:34.745Z,39.48
2023-03-22T12:08:35.026Z,39.87
2023-03-22T12:11:35.679Z,40.34
2023-03-22T12:14:34.226Z,38.37
2023-03-22T12:16:34.334Z,37.12
2023-03-22T12:18:35.042Z,38.17
2023-03-22T12:21:34.207Z,38.94
2023-03-22T12:24:34.856Z,37.18
2023-03-22T12:26:34.957Z,38.11
2023-03-22T12:29:34.527Z,38.23
2023-03-22T12:31:35.057Z,36.08
2023-03-22T12:34:34.225Z,35.97
2023-03-22T12:36:34.895Z,36.21
2023-03-22T12:39:34.194Z,36.21
2023-03-22T12:41:35.059Z,36.24
2023-03-22T12:44:34.651Z,37.13
2023-03-22T12:47:34.945Z,37.79
2023-03-22T12:50:34.895Z,36.81
2023-03-22T12:53:34.285Z,38
2023-03-22T12:56:34.244Z,38.34
2023-03-22T12:58:34.226Z,37.49
2023-03-22T13:00:34.811Z,37
2023-03-22T13:03:34.968Z,37.9
2023-03-22T13:06:34.828Z,38.45
2023-03-22T13:08:34.942Z,37.79
2023-03-22T13:12:35.400Z,37.83
2023-03-22T13:15:41.637Z,39.2
2023-03-22T13:17:34.367Z,38.06
2023-03-22T13:20:34.251Z,37.83
2023-03-22T13:23:34.250Z,37.86
2023-03-22T13:25:34.974Z,38.07
2023-03-22T13:28:34.207Z,37.98
2023-03-22T13:30:34.881Z,39.18
2023-03-22T13:33:34.240Z,37.26
2023-03-22T13:35:34.413Z,38.36
2023-03-22T13:38:34.734Z,39.24
2023-03-22T13:41:34.253Z,38.21
2023-03-22T13:43:34.615Z,39.86
2023-03-22T13:46:34.330Z,38.7
2023-03-22T13:49:34.237Z,38.97
2023-03-22T13:52:34.225Z,38.08
2023-03-22T13:55:34.218Z,37.72
2023-03-22T13:57:34.350Z,39.6
2023-03-22T13:59:34.437Z,37.58
2023-03-22T14:02:34.280Z,37.8
2023-03-22T14:04:34.274Z,38.75
2023-03-22T14:06:34.976Z,38.1
2023-03-22T14:09:35.234Z,38.64
2023-03-22T14:12:34.229Z,39.12
2023-03-22T14:15:34.280Z,37.88
2023-03-22T14:17:35.172Z,39.29
2023-03-22T14:19:35.101Z,38.51
2023-03-22T14:53:34.275Z,34.57
2023-03-22T14:56:34.946Z,34.26
2023-03-22T14:59:34.249Z,33.63
2023-03-22T15:02:34.300Z,34.78
2023-03-22T15:04:34.681Z,35.32
2023-03-22T15:07:34.776Z,35.89
2023-03-22T15:10:34.811Z,36.18
2023-03-22T15:12:35.057Z,36.91
2023-03-22T15:15:34.250Z,35.82
2023-03-22T15:18:34.285Z,35.17
2023-03-22T15:21:34.868Z,36.55
2023-03-22T15:25:35.122Z,36.83
2023-03-22T15:28:34.756Z,37.16
2023-03-22T15:31:34.245Z,36.17
2023-03-22T15:34:35.180Z,37.1
2023-03-22T15:37:34.237Z,36.54
2023-03-22T15:39:34.262Z,36.46
2023-03-22T15:41:34.408Z,38.02
2023-03-22T15:43:34.417Z,36.77
2023-03-22T15:45:34.457Z,38.66
2023-03-22T15:47:34.893Z,37.77
2023-03-22T15:50:34.255Z,36.69
2023-03-22T15:53:35.130Z,36.26
2023-03-22T15:56:38.567Z,36.8
2023-03-22T15:59:34.246Z,36.91
2023-03-22T16:01:34.925Z,37.94
2023-03-22T16:04:34.255Z,38.21
2023-03-22T16:06:34.297Z,38.15
2023-03-22T16:08:35.152Z,37.46
2023-03-22T16:11:34.297Z,37.98
2023-03-22T16:13:34.512Z,37.99
2023-03-22T16:16:34.263Z,39.11
2023-03-22T16:18:34.378Z,38.62
2023-03-22T16:20:34.887Z,38.55
2023-03-22T16:23:34.478Z,38.92
2023-03-22T16:25:34.954Z,38.69
2023-03-22T16:28:34.259Z,38.84
2023-03-22T16:33:34.617Z,40.08
2023-03-22T16:36:34.279Z,39.56
2023-03-22T16:39:34.389Z,39.41
2023-03-22T16:42:34.946Z,39.28
2023-03-22T16:45:34.297Z,39.85
2023-03-22T16:47:34.644Z,39.46
2023-03-22T16:50:34.289Z,39.3
2023-03-22T16:52:34.674Z,39.65
2023-03-22T16:55:35.120Z,39.37
2023-03-22T16:58:34.966Z,39.29
2023-03-22T17:01:34.362Z,39.7
2023-03-22T17:04:34.259Z,39.87
2023-03-22T17:07:34.306Z,39.79
2023-03-22T17:10:34.494Z,39.55
2023-03-22T17:12:34.575Z,39.59
2023-03-22T17:15:34.223Z,40.23
2023-03-22T17:17:35.325Z,39.98
2023-03-22T17:20:35.112Z,40.86
2023-03-22T17:23:34.261Z,39.75
2023-03-22T17:25:34.250Z,39.73
2023-03-22T17:27:34.266Z,39.93
2023-03-22T17:29:34.365Z,38.96
2023-03-22T17:31:35.002Z,38.96
2023-03-22T17:33:36.244Z,38.33
2023-03-22T17:36:34.305Z,39.98
2023-03-22T17:38:41.681Z,38.24
2023-03-22T17:41:34.321Z,37.59
2023-03-22T17:44:34.842Z,37.48
2023-03-22T17:47:40.183Z,37.32
2023-03-22T17:49:34.276Z,37.1
2023-03-22T17:52:34.290Z,35.88
2023-03-22T17:54:59.325Z,36
2023-03-22T17:57:04.057Z,35.92
2023-03-22T17:59:35.228Z,36.91
2023-03-22T18:02:35.247Z,37.14
2023-03-22T18:05:34.245Z,35.84
2023-03-22T18:07:34.309Z,35.77
2023-03-22T18:10:34.548Z,35.29
2023-03-22T18:13:34.398Z,35.16
2023-03-22T18:16:52.556Z,35.31
2023-03-22T18:18:34.948Z,34.54
2023-03-22T18:21:34.282Z,34.57
2023-03-22T18:23:34.272Z,35.48
2023-03-22T18:25:41.436Z,35.88
2023-03-22T18:27:45.961Z,34.54
2023-03-22T18:29:34.791Z,36.12
2023-03-22T18:31:34.816Z,36.89
2023-03-22T18:34:35.137Z,37.4
2023-03-22T18:37:34.895Z,35.84
2023-03-22T18:40:13.497Z,36.08
2023-03-22T18:42:45.733Z,36.23
2023-03-22T18:45:52.886Z,35.53
2023-03-22T18:48:35.864Z,35.67
2023-03-22T18:51:44.079Z,35.55
2023-03-22T18:53:34.771Z,36.06
2023-03-22T18:56:34.992Z,35.48
2023-03-22T18:59:34.853Z,35.37
2023-03-22T19:02:39.636Z,35.53
2023-03-22T19:04:34.379Z,35.3
2023-03-22T19:07:45.103Z,35.86
2023-03-22T19:10:34.327Z,35.77
2023-03-22T19:12:34.306Z,36.48
2023-03-22T19:15:11.430Z,36.17
2023-03-22T19:16:34.869Z,36.02
2023-03-22T19:19:35.168Z,35.86
2023-03-22T19:22:35.107Z,36.05
2023-03-22T19:25:34.719Z,36.16
2023-03-22T19:28:34.494Z,36.63
2023-03-22T19:31:34.304Z,37.23
2023-03-22T19:34:34.337Z,36.61
2023-03-22T19:36:34.783Z,36.34
2023-03-22T19:39:35.104Z,36.99
2023-03-22T19:42:36.788Z,36.62
2023-03-22T19:44:34.332Z,36.58
2023-03-22T19:46:34.314Z,37.08
2023-03-22T19:48:34.616Z,37.15
2023-03-22T19:51:34.515Z,37.82
2023-03-22T19:54:43.363Z,37.81
2023-03-22T19:57:34.937Z,37.81
2023-03-22T20:00:45.327Z,37.88
2023-03-22T20:02:35.791Z,38.43
2023-03-22T20:05:35.009Z,37.91
2023-03-22T20:08:34.339Z,38.4
2023-03-22T20:10:34.640Z,38.32
2023-03-22T20:13:34.317Z,38.56
2023-03-22T20:15:35.157Z,38.39
2023-03-22T20:18:34.411Z,38.94
2023-03-22T20:21:34.347Z,39.12
2023-03-22T20:23:34.471Z,39.32
2023-03-22T20:26:34.493Z,39.61
2023-03-22T20:29:34.879Z,39.7
2023-03-22T20:31:34.986Z,40.34
2023-03-22T20:34:34.362Z,39.72
2023-03-22T20:36:34.324Z,39.6
2023-03-22T20:38:34.820Z,40.06
2023-03-22T20:41:35.633Z,39.59
2023-03-22T20:43:35.089Z,40.42
2023-03-22T20:46:35.103Z,40.2
2023-03-22T20:49:34.837Z,39.81
2023-03-22T20:52:34.379Z,40.56
2023-03-22T20:55:34.335Z,40.83
2023-03-22T20:57:34.333Z,40.67
2023-03-22T21:00:34.344Z,40.71
2023-03-22T21:02:35.166Z,41.09
2023-03-22T21:05:34.710Z,41.26
2023-03-22T21:07:35.009Z,41.29
2023-03-22T21:09:35.055Z,41.18
2023-03-22T21:12:34.920Z,41.79
2023-03-22T21:15:34.320Z,41.94
2023-03-22T21:17:34.387Z,41.77
2023-03-22T21:19:35.121Z,41.87
2023-03-22T21:22:34.950Z,41.94
2023-03-22T21:24:35.201Z,42.15
2023-03-22T21:27:34.846Z,42.08
2023-03-22T21:30:34.307Z,42.5
2023-03-22T21:32:34.418Z,42.67
2023-03-22T21:34:34.358Z,42.75
2023-03-22T21:37:34.871Z,42.95
2023-03-22T21:40:34.322Z,42.87
2023-03-22T21:42:35.356Z,43.08
2023-03-22T21:44:34.350Z,43.06
2023-03-22T21:46:35.956Z,43.12
2023-03-22T21:49:34.299Z,43.22
2023-03-22T21:51:34.343Z,43.31
2023-03-22T21:53:34.471Z,43.55
2023-03-22T21:55:34.793Z,43.42
2023-03-22T21:57:35.093Z,43.63
2023-03-22T22:00:34.580Z,43.8
2023-03-22T22:03:34.467Z,43.8
2023-03-22T22:06:34.325Z,43.91
2023-03-22T22:09:34.318Z,43.95
2023-03-22T22:12:34.345Z,43.9
2023-03-22T22:14:34.365Z,44.04
2023-03-22T22:16:34.521Z,44.16
2023-03-22T22:19:34.283Z,43.93
2023-03-22T22:21:34.307Z,44.11
2023-03-22T22:23:34.949Z,44.02
2023-03-22T22:26:34.301Z,44.17
2023-03-22T22:29:34.507Z,44.18
2023-03-22T22:31:34.973Z,44.24
2023-03-22T22:34:34.312Z,44.31
2023-03-22T22:36:35.242Z,43.86
2023-03-22T22:39:34.714Z,43.36
2023-03-22T22:42:34.628Z,43.37
2023-03-22T22:45:34.403Z,43.49
2023-03-22T22:47:34.492Z,43.4
2023-03-22T22:50:34.316Z,43.32
2023-03-22T22:52:34.400Z,43.44
2023-03-22T22:55:34.320Z,43.4
2023-03-22T22:57:34.585Z,43.6
2023-03-22T22:59:34.702Z,43.47
2023-03-22T23:02:34.705Z,43.66
2023-03-22T23:05:34.623Z,43.51
2023-03-22T23:08:35.045Z,43.4
2023-03-22T23:11:34.602Z,43.86
2023-03-22T23:13:34.324Z,43.8
2023-03-22T23:15:34.538Z,43.58
2023-03-22T23:17:34.789Z,43.61
2023-03-22T23:20:35.220Z,43.6
2023-03-22T23:23:34.378Z,43.7
2023-03-22T23:25:34.876Z,43.65
2023-03-22T23:28:34.367Z,43.92
2023-03-22T23:31:34.354Z,43.95
2023-03-22T23:34:34.318Z,43.71
2023-03-22T23:36:34.612Z,43.94
2023-03-22T23:38:34.903Z,43.99
2023-03-22T23:41:35.041Z,44.23
2023-03-22T23:44:35.219Z,44.05
2023-03-22T23:47:34.333Z,44.27
2023-03-22T23:50:34.391Z,44.3
2023-03-22T23:53:34.323Z,44.24
2023-03-22T23:55:34.360Z,44.24
2023-03-22T23:58:34.317Z,44.32
